This is the latest recevied weather packets stored in our database for station/object OK4PZ-4. If no packets are shown the sender has not sent any weather packets the latest 10 day(s).
| Time | Temp. | Humidity | Pressure | Rain* | Wind** | Luminosity | Snow |
|---|---|---|---|---|---|---|---|
| 1777583787 | 7.22° C | 44% | 1025.2 hPa | 0 mm | - | - | - |
| 1777580061 | 8.89° C | 38% | 1025 hPa | 0 mm | - | - | - |
| 1777579828 | 9.44° C | 38% | 1025 hPa | 0 mm | - | - | - |
| 1777576102 | 11.11° C | 32% | 1024.7 hPa | 0 mm | - | - | - |
| 1777572142 | 16.67° C | 24% | 1024.1 hPa | 0 mm | - | - | - |
| 1777568223 | 21.67° C | 18% | 1023.7 hPa | 0 mm | - | - | - |
| 1777568183 | 21.67° C | 18% | 1023.7 hPa | 0 mm | - | - | - |
| 1777564224 | 23.33° C | 17% | 1023.8 hPa | 0 mm | - | - | - |
| 1777560498 | 24.44° C | 16% | 1024 hPa | 0 mm | - | - | - |
| 1777560265 | 24.44° C | 15% | 1024 hPa | 0 mm | - | - | - |
| 1777556539 | 25° C | 16% | 1024.4 hPa | 0 mm | - | - | - |
| 1777552579 | 24.44° C | 17% | 1024.9 hPa | 0 mm | - | - | - |
| 1777548620 | 23.89° C | 19% | 1025.7 hPa | 0 mm | - | - | - |
| 1777544666 | 20° C | 23% | 1026.3 hPa | 0 mm | - | - | - |
| 1777540702 | 18.33° C | 26% | 1026.7 hPa | 0 mm | - | - | - |
| 1777536976 | 16.11° C | 31% | 1027.1 hPa | 0 mm | - | - | - |
| 1777536743 | 16.11° C | 30% | 1027.2 hPa | 0 mm | - | - | - |
| 1777533017 | 14.44° C | 41% | 1027.3 hPa | 0 mm | - | - | - |
| 1777525102 | 0° C | 68% | 1027.4 hPa | 0 mm | - | - | - |
| 1777521139 | -0.56° C | 65% | 1027 hPa | 0 mm | - | - | - |
| 1777517180 | 0° C | 62% | 1026.7 hPa | 0 mm | - | - | - |
| 1777513221 | 0.56° C | 57% | 1026.4 hPa | 0 mm | - | - | - |
| 1777509494 | 1.67° C | 51% | 1026.2 hPa | 0 mm | - | - | - |
| 1777509262 | 1.67° C | 50% | 1026.1 hPa | 0 mm | - | - | - |
| 1777505535 | 3.33° C | 45% | 1026.1 hPa | 0 mm | - | - | - |
* Rain since midnight (hover to see other rain measurements)
** Current wind speed in m/s (hover to see current wind gust speed)